Aleknagik, Alaska
Current Conditions -  °F | °C
As of 3:50 PM on Friday 19 Dec 2014 (Local Time) from PADL Reporting Station
Broken Clouds Broken Clouds  
Wind Chill: 11°   Ceiling: 20000
Heat Index: 25°   Visibility: 20mi
Dew Point: 14°   Wind: 18mph
Humidity: 64%   Direction: 340°NNW
Pressure: 28.99"   Gusts: 25mph
Location:  59.27°N, 158.62°W
Report Text: PADL 200050Z 34016G22KT 20SM BKN200 M04/M10 A2899
Loading
Personal Weather Stations






























Interactive Weather Map New forecast layout! Learn more

10-Day Weather Forecast

Advertisements
Track Severe Weather on mobile